^^
Datos históricos de la estación: Murcia-Puente Tocinos
Diario Informe para Mayo 05, 2021 Unidades:  Ingés    Métrico   Ambas
Diario Semanal Mensual Anual
  Máxima: Mínima: Promedio:
Temperatura: 80.4 °F 57.6 °F 66.7 °F
Punto de rocio: 57.7 °F 46.2 °F 53.8 °F
Humedad: 85% 32.3% 66%
Velocidad viento: 12.6mph 0mph 4.5mph
Racha viento: 22mph - -
Viento- - Sur
Presión: 30 in 29.9 in -
Precipitación: 0 in    
 
 
Tabla de datos para Mayo 05, 2021
Hora Temperatura Punto de rocio Presión Viento Velocidad viento Racha viento Humedad Intensidad lluvia(por hora) Nubes
00:04 61.5 °F 54.9 °F 30 in NE 1.8 mph 4 mph 79% 0 in
00:09 61.5 °F 54.9 °F 30 in NE 1.8 mph 3 mph 79% 0 in
00:14 61.5 °F 54.9 °F 30 in NE 1.8 mph 3.5 mph 79% 0 in
00:19 61.5 °F 54.9 °F 30 in NE 1.6 mph 3 mph 79% 0 in
00:24 61.5 °F 54.9 °F 30 in NNO 1.4 mph 3.5 mph 79% 0 in
00:29 61.3 °F 54.9 °F 30 in NO 1.7 mph 3.6 mph 79% 0 in
00:34 61.2 °F 54.9 °F 30 in NO 2 mph 4 mph 79.8% 0 in
00:39 61.2 °F 54.9 °F 30 in NO 1.9 mph 4 mph 80% 0 in
00:44 61 °F 54.9 °F 30 in NO 1.8 mph 3.1 mph 80.3% 0 in
00:49 60.8 °F 54.9 °F 30 in North 1.6 mph 3.5 mph 81% 0 in
00:54 60.6 °F 54.9 °F 30 in North 1.4 mph 3.5 mph 81% 0 in
00:59 60.6 °F 54.9 °F 30 in NE 1.7 mph 3 mph 81% 0 in
01:04 60.6 °F 54.9 °F 30 in NE 2 mph 2.3 mph 81% 0 in
01:09 60.6 °F 54.9 °F 30 in NE 0.9 mph 2 mph 81% 0 in
01:14 60.6 °F 54.9 °F 30 in Calm   2.3 mph 81% 0 in
01:19 60.6 °F 54.9 °F 30 in Calm   2.3 mph 81% 0 in
01:24 60.6 °F 54.9 °F 30 in Calm   2.4 mph 81.2% 0 in
01:29 60.4 °F 54.9 °F 30 in NO 0.7 mph 3.6 mph 82% 0 in
01:34 60.4 °F 54.9 °F 30 in ONO 1.4 mph 4 mph 82% 0 in
01:39 60.3 °F 54.7 °F 30 in ONO 1.7 mph 4 mph 82% 0 in
01:44 60.3 °F 54.7 °F 30 in ONO 2 mph 4 mph 82% 0 in
01:49 60.3 °F 54.7 °F 30 in ONO 2 mph 3.1 mph 82% 0 in
01:54 60.1 °F 54.5 °F 30 in ONO 2 mph 4.6 mph 82.1% 0 in
01:59 59.9 °F 54.7 °F 30 in ONO 1.9 mph 5 mph 83% 0 in
02:04 59.7 °F 54.5 °F 30 in ONO 1.8 mph 3 mph 83% 0 in
02:09 59.7 °F 54.5 °F 30 in ONO 0.8 mph 2 mph 83% 0 in
02:14 59.7 °F 54.5 °F 30 in Calm   1.8 mph 83% 0 in
02:19 59.7 °F 54.5 °F 30 in Calm   2.3 mph 83% 0 in
02:24 59.7 °F 54.5 °F 30 in Calm   2 mph 83% 0 in
02:29 59.7 °F 54.5 °F 30 in Calm     83% 0 in
02:34 59.7 °F 54.5 °F 30 in Calm   5.2 mph 83% 0 in
02:39 59.7 °F 54.3 °F 30 in Sur 1.1 mph 5 mph 82.4% 0 in
02:44 59.7 °F 54.1 °F 30 in SSE 2 mph 6.2 mph 82% 0 in
02:49 59.5 °F 54.1 °F 30 in SSE 2.9 mph 6.9 mph 82% 0 in
02:54 59.5 °F 54.1 °F 30 in SSE 3.6 mph 7 mph 82.4% 0 in
02:59 59.5 °F 54.3 °F 30 in Sur 4.3 mph 7 mph 83% 0 in
03:04 59.5 °F 54.3 °F 30 in SSO 4.7 mph 7 mph 83% 0 in
03:09 59.5 °F 54.1 °F 30 in SSO 4.5 mph 7 mph 82.5% 0 in
03:14 59.5 °F 54 °F 30 in SO 4.3 mph 5 mph 82% 0 in
03:19 59.5 °F 54 °F 30 in SO 3.5 mph 5.9 mph 82% 0 in
03:24 59.7 °F 54.1 °F 30 in SSO 2.9 mph 6.2 mph 82% 0 in
03:29 59.5 °F 54.1 °F 30 in SSO 3.3 mph 6 mph 82% 0 in
03:34 59.5 °F 54 °F 30 in Sur 3.6 mph 6.9 mph 81.8% 0 in
03:39 59.5 °F 53.8 °F 30 in Sur 3.8 mph 8.1 mph 81% 0 in
03:44 59.5 °F 53.8 °F 30 in Sur 4 mph 9.2 mph 81% 0 in
03:49 59.5 °F 53.6 °F 30 in SSO 5.2 mph 9.2 mph 81% 0 in
03:54 59.4 °F 53.4 °F 30 in Sur 5.9 mph 9 mph 81% 0 in
03:59 59.4 °F 53.4 °F 30 in Sur 5 mph 7 mph 81% 0 in
04:04 59.4 °F 53.4 °F 30 in Sur 4.3 mph 6 mph 81% 0 in
04:09 59.4 °F 53.4 °F 30 in Sur 3.9 mph 6 mph 81% 0 in
04:14 59.2 °F 53.4 °F 30 in SSE 3.6 mph 5.9 mph 81% 0 in
04:19 59.2 °F 53.4 °F 30 in SSE 3.8 mph 6.9 mph 81% 0 in
04:24 59 °F 53.2 °F 30 in SSE 4 mph 7 mph 81% 0 in
04:29 58.8 °F 53.1 °F 30 in SE 3.8 mph 6 mph 81% 0 in
04:34 58.8 °F 53.1 °F 30 in Sur 3.6 mph 5 mph 81% 0 in
04:39 58.8 °F 53.1 °F 30 in SO 2.9 mph 5 mph 81% 0 in
04:44 58.8 °F 53.1 °F 30 in SO 2.4 mph 5 mph 81% 0 in
04:49 58.8 °F 53.1 °F 30 in SO 2.4 mph 5 mph 81% 0 in
04:54 58.8 °F 53.1 °F 30 in SO 2.4 mph 5 mph 81% 0 in
04:59 58.8 °F 53.1 °F 30 in SO 2.2 mph 5 mph 81% 0 in
05:04 58.8 °F 53.1 °F 30 in OSO 2 mph 5 mph 81% 0 in
05:09 58.6 °F 53.1 °F 30 in SO 2.2 mph 5.2 mph 81.6% 0 in
05:14 58.6 °F 53.2 °F 30 in SO 2.4 mph 6.2 mph 82% 0 in
05:19 58.6 °F 53.4 °F 30 in SO 3 mph 7.4 mph 82.9% 0 in
05:24 58.5 °F 53.4 °F 30 in SO 3.6 mph 6.9 mph 83% 0 in
05:29 58.5 °F 53.2 °F 30 in SO 4.2 mph 7.4 mph 83% 0 in
05:34 58.5 °F 53.2 °F 29.9 in SO 4.7 mph 7.4 mph 83% 0 in
05:39 58.3 °F 53.2 °F 29.9 in SO 4.7 mph 6.9 mph 83.4% 0 in
05:44 58.3 °F 53.4 °F 29.9 in SO 4.7 mph 7 mph 84% 0 in
05:49 58.3 °F 53.4 °F 29.9 in SSO 4.1 mph 5.2 mph 84% 0 in
05:54 58.3 °F 53.4 °F 29.9 in SO 3.6 mph 5 mph 84% 0 in
05:59 58.3 °F 53.4 °F 29.9 in SO 3.2 mph 5 mph 84% 0 in
06:04 58.1 °F 53.2 °F 29.9 in OSO 2.9 mph 4 mph 84% 0 in
06:09 57.9 °F 53.1 °F 29.9 in SO 2.6 mph 3.6 mph 84% 0 in
06:14 57.9 °F 53.1 °F 29.9 in SO 2.4 mph 5.8 mph 84% 0 in
06:19 57.9 °F 53.1 °F 29.9 in SO 2.7 mph 6.9 mph 84% 0 in
06:24 57.7 °F 52.9 °F 29.9 in SSO 2.9 mph 7 mph 84% 0 in
06:29 57.7 °F 53.2 °F 29.9 in SO 3.5 mph 7 mph 85% 0 in
06:34 57.7 °F 53.2 °F 29.9 in SO 4 mph 7 mph 85% 0 in
06:39 57.7 °F 53.2 °F 29.9 in SO 4.2 mph 7 mph 85% 0 in
06:44 57.6 °F 53.1 °F 29.9 in SO 4.3 mph 6 mph 85% 0 in
06:49 57.6 °F 53.1 °F 29.9 in SSO 3.9 mph 6.9 mph 85% 0 in
06:54 57.6 °F 53.1 °F 29.9 in SSO 3.6 mph 7 mph 85% 0 in
06:59 57.6 °F 53.1 °F 29.9 in Sur 3.9 mph 7.4 mph 85% 0 in
07:04 57.6 °F 53.1 °F 29.9 in Sur 4 mph 7 mph 85% 0 in
07:09 57.6 °F 53.1 °F 29.9 in Sur 4.4 mph 7 mph 85% 0 in
07:14 57.6 °F 53.1 °F 30 in SSO 4.7 mph 7 mph 85% 0 in
07:19 57.7 °F 53.2 °F 30 in SSO 4.3 mph 7 mph 85% 0 in
07:24 57.7 °F 53.2 °F 30 in SO 4 mph 5.2 mph 85% 0 in
07:29 57.7 °F 53.2 °F 30 in SO 3.4 mph 6.2 mph 85% 0 in
07:34 57.7 °F 53.2 °F 30 in SSO 2.9 mph 6.9 mph 85% 0 in
07:39 57.9 °F 53.2 °F 30 in SSO 3.7 mph 8.1 mph 84.5% 0 in
07:44 57.9 °F 53.2 °F 30 in SSO 4.3 mph 8.1 mph 84% 0 in
07:49 58.3 °F 53.4 °F 30 in SSO 4.3 mph 8 mph 84% 0 in
07:54 58.5 °F 53.4 °F 30 in Sur 4.3 mph 7 mph 83.6% 0 in
07:59 58.6 °F 53.4 °F 30 in Sur 4.5 mph 7 mph 83% 0 in
08:04 58.8 °F 53.4 °F 30 in Sur 4.7 mph 7 mph 82.4% 0 in
08:09 59 °F 53.4 °F 30 in SO 4.3 mph 7 mph 82% 0 in
08:14 59.4 °F 53.6 °F 30 in SSO 4 mph 6.2 mph 81.3% 0 in
08:19 59.5 °F 53.6 °F 30 in SSO 4 mph 7.6 mph 80.8% 0 in
08:24 59.7 °F 53.6 °F 30 in SO 4 mph 8.1 mph 80% 0 in
08:29 60.1 °F 53.6 °F 30 in OSO 4.2 mph 8 mph 79.4% 0 in
08:34 60.1 °F 53.6 °F 30 in SO 4.3 mph 9.2 mph 79% 0 in
08:39 60.3 °F 53.8 °F 30 in SSO 4.8 mph 9 mph 79% 0 in
08:44 60.4 °F 53.6 °F 30 in SSO 5.2 mph 7 mph 78.2% 0 in
08:49 60.8 °F 53.8 °F 30 in SSO 4.5 mph 7 mph 78% 0 in
08:54 61.2 °F 53.8 °F 30 in SSO 4 mph 6.2 mph 77.1% 0 in
08:59 61.2 °F 53.6 °F 30 in Sur 4.5 mph 9.2 mph 76.1% 0 in
09:04 61.2 °F 53.6 °F 30 in SSO 4.7 mph 9 mph 76% 0 in
09:09 61.3 °F 53.8 °F 30 in SSO 4.7 mph 7 mph 76% 0 in
09:14 61.7 °F 54.1 °F 30 in SO 4.7 mph 6 mph 76% 0 in
09:19 62.1 °F 54 °F 30 in SO 4 mph 8.1 mph 75% 0 in
09:24 62.1 °F 54 °F 30 in SO 3.6 mph 9.2 mph 75% 0 in
09:29 62.2 °F 54.1 °F 30 in OSO 4.2 mph 9 mph 74.6% 0 in
09:34 62.6 °F 54.1 °F 30 in SO 4.7 mph 9 mph 74% 0 in
09:39 62.8 °F 54.1 °F 30 in SO 5.1 mph 11.8 mph 73.2% 0 in
09:44 63 °F 54.3 °F 30 in SO 5.4 mph 12 mph 73.5% 0 in
09:49 63.3 °F 54.5 °F 30 in SSO 5.3 mph 9.2 mph 73.3% 0 in
09:54 63.7 °F 54.5 °F 30 in SO 5.2 mph 10.4 mph 72.2% 0 in
09:59 63.7 °F 54.5 °F 30 in SSO 5.6 mph 10 mph 72% 0 in
10:04 64 °F 54.5 °F 30 in SO 5.9 mph 8.1 mph 71.4% 0 in
10:09 64.4 °F 54.7 °F 30 in SSO 5.3 mph 8 mph 70.7% 0 in
10:14 64.9 °F 54.7 °F 30 in Sur 4.7 mph 9.2 mph 69.5% 0 in
10:19 65.1 °F 54.5 °F 30 in SSO 5 mph 9.2 mph 68.2% 0 in
10:24 65.5 °F 54.3 °F 30 in SSO 5.2 mph 9.7 mph 67.6% 0 in
10:29 65.7 °F 54.5 °F 30 in Sur 5.3 mph 10 mph 67.8% 0 in
10:34 66 °F 54.5 °F 30 in Sur 5.4 mph 8 mph 66.6% 0 in
10:39 66.6 °F 54.7 °F 30 in SSO 5 mph 8.1 mph 65.9% 0 in
10:44 66.9 °F 54.3 °F 30 in SSO 4.7 mph 8.1 mph 64.1% 0 in
10:49 67.3 °F 54.3 °F 30 in SO 4.7 mph 8 mph 63.1% 0 in
10:54 67.6 °F 54.5 °F 30 in OSO 4.7 mph 7 mph 62.9% 0 in
10:59 68.2 °F 54.3 °F 30 in OSO 3.8 mph 9.2 mph 61.2% 0 in
11:04 68.5 °F 54.3 °F 30 in SO 3.1 mph 9 mph 60.2% 0 in
11:09 69.1 °F 54 °F 30 in OSO 3.1 mph 7 mph 58.9% 0 in
11:14 69.3 °F 53.8 °F 30 in OSO 3.1 mph 7.4 mph 58% 0 in
11:19 69.4 °F 54.1 °F 30 in Oeste 3.4 mph 7 mph 58% 0 in
11:24 70.2 °F 54.1 °F 30 in Oeste 3.6 mph 8.1 mph 56.9% 0 in
11:29 70.5 °F 53.6 °F 30 in ONO 3.6 mph 8.1 mph 55% 0 in
11:34 70.7 °F 53.1 °F 30 in OSO 3.6 mph 8 mph 53.6% 0 in
11:39 71.1 °F 53.1 °F 30 in SSO 3.9 mph 7 mph 53% 0 in
11:44 71.6 °F 53.4 °F 30 in SSE 4 mph 5 mph 52.9% 0 in
11:49 72.3 °F 54 °F 30 in North 3.4 mph 5.2 mph 52.3% 0 in
11:54 73.2 °F 53.6 °F 30 in Este 2.9 mph 5.9 mph 50.4% 0 in
11:59 73.6 °F 52.7 °F 30 in SSE 3 mph 6.9 mph 48% 0 in
12:04 73.6 °F 52.7 °F 30 in SE 3.1 mph 7 mph 48% 0 in
12:09 73.9 °F 52.3 °F 30 in ESE 3.4 mph 7 mph 46.7% 0 in
12:14 74.7 °F 51.4 °F 30 in Sur 3.6 mph 6.9 mph 44.2% 0 in
12:19 75.2 °F 50.9 °F 30 in SSE 3.2 mph 7 mph 42.7% 0 in
12:24 75.4 °F 50.5 °F 30 in SO 2.9 mph 7 mph 41.7% 0 in
12:29 75.6 °F 50.2 °F 30 in SSO 3.3 mph 6.2 mph 40.8% 0 in
12:34 75.9 °F 49.3 °F 30 in Sur 3.6 mph 8.1 mph 39.2% 0 in
12:39 75.9 °F 48.7 °F 30 in SO 4.2 mph 8.1 mph 38.2% 0 in
12:44 76.1 °F 48.7 °F 30 in Sur 4.7 mph 8 mph 38.1% 0 in
12:49 76.6 °F 48.9 °F 30 in SE 3.2 mph 5 mph 37.5% 0 in
12:54 77.4 °F 48.7 °F 30 in Oeste 1.8 mph 6.2 mph 36.6% 0 in
12:59 77.4 °F 48.4 °F 30 in Oeste 2.5 mph 8.1 mph 36% 0 in
13:04 77.2 °F 48.2 °F 30 in ONO 3.1 mph 8.1 mph 36% 0 in
13:09 77.2 °F 48.2 °F 30 in ONO 4 mph 8 mph 36% 0 in
13:14 77.4 °F 47.5 °F 30 in SSO 4.7 mph 6 mph 35% 0 in
13:19 77.7 °F 47.1 °F 30 in SO 3.8 mph 6 mph 33.9% 0 in
13:24 78.3 °F 46.8 °F 30 in SSO 2.9 mph 8.1 mph 33.1% 0 in
13:29 78.3 °F 46.6 °F 30 in OSO 3.5 mph 8 mph 32.7% 0 in
13:34 78.4 °F 46.2 °F 30 in ONO 4 mph 6.9 mph 32.3% 0 in
13:39 78.6 °F 52.3 °F 30 in SSE 3.8 mph 13.5 mph 40.3% 0 in
13:44 78.4 °F 56.1 °F 30 in ENE 3.6 mph 14 mph 46.2% 0 in
13:49 78.3 °F 49.6 °F 29.9 in SSE 5.8 mph 13 mph 36.7% 0 in
13:54 78.6 °F 51.8 °F 29.9 in SSE 7.4 mph 13 mph 39.5% 0 in
13:59 78.6 °F 49.3 °F 29.9 in Este 6.6 mph 10.4 mph 35.8% 0 in
14:04 78.8 °F 53.1 °F 29.9 in ESE 6.2 mph 17.3 mph 41% 0 in
14:09 78.8 °F 56.5 °F 29.9 in Este 7 mph 17 mph 46.4% 0 in
14:14 78.4 °F 55.4 °F 29.9 in ENE 7.6 mph 15 mph 45.1% 0 in
14:19 78.4 °F 55 °F 29.9 in Este 7.9 mph 14 mph 44.5% 0 in
14:24 79 °F 54.3 °F 29.9 in Este 8.1 mph 14 mph 42.4% 0 in
14:29 79.2 °F 54.7 °F 29.9 in Este 6.6 mph 12.7 mph 42.9% 0 in
14:34 79.2 °F 54.5 °F 29.9 in Este 5.4 mph 13 mph 42.8% 0 in
14:39 78.8 °F 54.5 °F 29.9 in Este 6.3 mph 13 mph 43% 0 in
14:44 78.8 °F 53.8 °F 29.9 in Este 6.9 mph 12.7 mph 42.1% 0 in
14:49 78.6 °F 53.6 °F 29.9 in ESE 7.3 mph 13 mph 41.9% 0 in
14:54 78.6 °F 53.1 °F 29.9 in Este 7.6 mph 13 mph 41.2% 0 in
14:59 79.2 °F 53.1 °F 29.9 in ENE 6.2 mph 10 mph 40.5% 0 in
15:04 79.5 °F 54.3 °F 29.9 in ENE 5.2 mph 9.2 mph 41.8% 0 in
15:09 80.1 °F 54.3 °F 29.9 in ESE 5.3 mph 14 mph 41% 0 in
15:14 80.1 °F 52.7 °F 29.9 in SE 5.4 mph 14 mph 38.8% 0 in
15:19 79.9 °F 53.8 °F 29.9 in SE 6.2 mph 15 mph 40.6% 0 in
15:24 79.9 °F 54.5 °F 29.9 in SSE 6.9 mph 15 mph 41.8% 0 in
15:29 79.9 °F 53.8 °F 29.9 in ESE 7.6 mph 13.8 mph 40.6% 0 in
15:34 79.9 °F 53.4 °F 29.9 in Sur 8.1 mph 14 mph 40% 0 in
15:39 80.1 °F 54.7 °F 29.9 in SSO 6.5 mph 14.5 mph 41.8% 0 in
15:44 80.4 °F 55.4 °F 29.9 in ESE 5.4 mph 15 mph 42.3% 0 in
15:49 80.4 °F 55.2 °F 29.9 in Este 7.1 mph 15 mph 42% 0 in
15:54 80.2 °F 55 °F 29.9 in Este 8.1 mph 14 mph 41.9% 0 in
15:59 80.2 °F 54.7 °F 29.9 in SE 7.6 mph 14 mph 41.5% 0 in
16:04 79.9 °F 54.9 °F 29.9 in SSE 7.4 mph 12 mph 42.2% 0 in
16:09 79.9 °F 55 °F 29.9 in ESE 5.7 mph 14 mph 42.5% 0 in
16:14 79.7 °F 55.9 °F 29.9 in ESE 4 mph 17.3 mph 44.2% 0 in
16:19 79.3 °F 56.5 °F 29.9 in ESE 7.1 mph 17.3 mph 45.6% 0 in
16:24 79.2 °F 57.4 °F 29.9 in ESE 9.7 mph 19 mph 47.2% 0 in
16:29 78.6 °F 57 °F 29.9 in ESE 10.5 mph 19.2 mph 47.6% 0 in
16:34 78.3 °F 57.4 °F 29.9 in ESE 11.2 mph 20 mph 49% 0 in
16:39 77.7 °F 57.7 °F 29.9 in ESE 11.3 mph 20 mph 50% 0 in
16:44 77.2 °F 57.2 °F 29.9 in ESE 11.4 mph 19 mph 50% 0 in
16:49 77.4 °F 57.2 °F 29.9 in ESE 12.1 mph 19 mph 50% 0 in
16:54 77.5 °F 57.2 °F 29.9 in ESE 12.5 mph 20.7 mph 49.4% 0 in
16:55 77.7 °F 57 °F 29.9 in ESE 12.6 mph 21 mph 49% 0 in
17:14 77.5 °F 56.7 °F 29.9 in ESE 11.8 mph 19 mph 48.6% 0 in
17:19 77.7 °F 57 °F 29.9 in ESE 11.5 mph 19 mph 49% 0 in
17:24 77.7 °F 57 °F 29.9 in ESE 11.2 mph 21.9 mph 49% 0 in
17:29 77.5 °F 56.8 °F 29.9 in ESE 11.6 mph 22 mph 49% 0 in
17:34 77.4 °F 57 °F 29.9 in ESE 11.8 mph 22 mph 49.4% 0 in
17:39 77.4 °F 57 °F 29.9 in ESE 12.1 mph 18.4 mph 49.7% 0 in
17:44 77.2 °F 57.2 °F 29.9 in ESE 12.3 mph 18.4 mph 50% 0 in
17:49 76.8 °F 57.2 °F 29.9 in ESE 11.9 mph 20.1 mph 50.9% 0 in
17:54 76.6 °F 57 °F 29.9 in ESE 11.4 mph 21 mph 51% 0 in
17:59 76.3 °F 57.2 °F 29.9 in ESE 11.4 mph 21 mph 51.9% 0 in
Murcia-Puente Tocinos, España
Compliments of Weather Underground - 2.5 mb

La estación de MeteoMurcia.com, publica sus datos en los siguientes proyectos:

Weather Underground PWS IMURCIAP2 Meteoclimatic www.awekas.at

W3Counter
Web Analytics